Aérodrome :
LOGIN :

S'inscrire | Disclaimer

   EN    FR    IT 

 










Légende :    VFR   VFR Marginal   IFR   IFR Intensif   IFR Très Intensif
Visi : 
Plafond : 
>= 8 km
>= 3000ft
5 à 8 km
1000 à 3000 ft
1500m à 5 km
500 à 1000 ft
800 à 1500m
200 à 500 ft
< 800m
< 200 ft
Symboles :   Orages  Brouillard  Fortes neiges  Fortes précipitations  Vent > 20 kt
SIGMETs :   Divers  Orages  Givrage  Turbulence  Onde Orograph.  Cendres Volcan.






- Altitude de l'aérodrome : 3 ft
- Code IATA : DHR


EHKD - Den Helder De Kooy

DERNIER METAR :
  • 110325Z AUTO VRB02KT 9999 OVC180 10/09 Q1008 BLU

METARs EXPIRÉS :
  • 110255Z AUTO 09001KT 9999 OVC170 10/09 Q1008 BLU
  • 110225Z AUTO 09001KT 9999 OVC160 11/09 Q1008 BLU
  • 110155Z AUTO VRB02KT 9999 OVC140 11/09 Q1008 BLU
  • 110125Z AUTO VRB02KT 9999 OVC140 11/08 Q1008 BLU
  • 110055Z AUTO 12002KT 9999 OVC150 11/07 Q1008 BLU

TAF TAF EHKD
Valide du 11 à 01h jusqu'au 11 à 13h UTC


110037Z 1101/1113 16004KT CAVOK
BECMG 1101/1103 VRB03KT
BECMG 1106/1108 06007KT
TEMPO 1110/1113 4500 SHRA SCT020CB
PROB30
TEMPO 1111/1113 3000 TSRA SCT012 SCT018CB



MET'MAP, la Météo Aéronautique d'un coup d'oeil ! - Copyright ORBIFLY Décembre 2007 - Disclaimer

ORBIFLY MET'MAP TEAM :

Programmation & Développement : Alexandra Zaïnal
Sur une idée originale de : Baudouin d'Aumeries
Assistance à la programmation : Marc-Olivier Méhu
Soutien technique & logistique : Manuel Goepfert

Contact : metmap@orbifly.com




SOURCES & CREDITS :

   NOAA